Cleveland, Ohio
Traffic Map
Current Weather Conditions
Cleveland, Ohio
Clear
Clear
72°
Feels Like: 72°
Wind Chill: 72° Ceiling: Unl
Heat Index: 72° Visibility: 10mi
Dew Point: 61° Wind: 6mph
Humidity: 68% Direction: 150° (SSE)
Pressure: 30.08in Gusts: 0mph
Raw Report DataKBKL 220453Z 15005KT 10SM CLR 22/16 A3008 RMK AO2 SLP181 T02220161 402720206 $
Traffic Incident Summary
Active as of:
Severity:
Category:
InformationThere was an issue retrieving the traffic information for this location. Please try a different location or try again shortly.
Advertisements